sensor_id;sensor_type;location;lat;lon;timestamp;noise_LAeq;noise_LA_min;noise_LA_max;noise_LA01;noise_LA95
72686;Laerm;61365;52.162;4.500;2023-04-23T00:01:06;44.11;37.97;52.83;;
72686;Laerm;61365;52.162;4.500;2023-04-23T00:03:36;44.15;38.39;48.99;;
72686;Laerm;61365;52.162;4.500;2023-04-23T00:06:07;44.12;38.47;52.35;;
72686;Laerm;61365;52.162;4.500;2023-04-23T00:08:37;43.97;35.16;50.50;;
72686;Laerm;61365;52.162;4.500;2023-04-23T00:11:04;43.86;37.44;52.92;;
72686;Laerm;61365;52.162;4.500;2023-04-23T00:13:31;43.84;38.11;52.29;;
72686;Laerm;61365;52.162;4.500;2023-04-23T00:15:58;43.86;38.38;52.34;;
72686;Laerm;61365;52.162;4.500;2023-04-23T00:18:24;43.70;37.59;48.77;;
72686;Laerm;61365;52.162;4.500;2023-04-23T00:20:50;43.85;38.02;48.64;;
72686;Laerm;61365;52.162;4.500;2023-04-23T00:23:16;43.76;37.30;51.26;;
72686;Laerm;61365;52.162;4.500;2023-04-23T00:25:43;43.83;37.93;52.36;;
72686;Laerm;61365;52.162;4.500;2023-04-23T00:28:09;43.71;37.05;52.07;;
72686;Laerm;61365;52.162;4.500;2023-04-23T00:30:35;43.86;37.32;52.20;;
72686;Laerm;61365;52.162;4.500;2023-04-23T00:33:01;43.84;37.55;52.50;;
72686;Laerm;61365;52.162;4.500;2023-04-23T00:35:27;43.85;37.57;52.41;;
72686;Laerm;61365;52.162;4.500;2023-04-23T00:37:54;43.73;37.36;51.94;;
72686;Laerm;61365;52.162;4.500;2023-04-23T00:40:20;43.70;37.68;51.62;;
72686;Laerm;61365;52.162;4.500;2023-04-23T00:42:46;43.60;37.88;49.03;;
72686;Laerm;61365;52.162;4.500;2023-04-23T00:45:14;43.60;37.15;51.89;;
72686;Laerm;61365;52.162;4.500;2023-04-23T00:47:41;43.48;37.87;51.75;;
72686;Laerm;61365;52.162;4.500;2023-04-23T00:50:08;43.54;37.91;50.33;;
72686;Laerm;61365;52.162;4.500;2023-04-23T00:52:34;43.44;37.58;51.62;;
72686;Laerm;61365;52.162;4.500;2023-04-23T00:55:01;43.44;37.22;53.75;;
72686;Laerm;61365;52.162;4.500;2023-04-23T00:57:27;43.51;37.05;51.78;;
72686;Laerm;61365;52.162;4.500;2023-04-23T00:59:53;43.49;37.79;50.75;;
72686;Laerm;61365;52.162;4.500;2023-04-23T01:02:21;43.50;38.05;52.90;;
72686;Laerm;61365;52.162;4.500;2023-04-23T01:04:48;43.29;36.43;51.67;;
72686;Laerm;61365;52.162;4.500;2023-04-23T01:07:20;43.41;37.88;51.24;;
72686;Laerm;61365;52.162;4.500;2023-04-23T01:09:48;43.24;37.45;50.61;;
72686;Laerm;61365;52.162;4.500;2023-04-23T01:12:15;43.23;37.53;52.17;;
72686;Laerm;61365;52.162;4.500;2023-04-23T01:14:42;43.27;36.77;51.59;;
72686;Laerm;61365;52.162;4.500;2023-04-23T01:17:09;43.29;37.60;52.02;;
72686;Laerm;61365;52.162;4.500;2023-04-23T01:19:38;43.19;36.24;52.53;;
72686;Laerm;61365;52.162;4.500;2023-04-23T01:22:09;43.27;38.22;50.06;;
72686;Laerm;61365;52.162;4.500;2023-04-23T01:24:36;43.15;37.80;51.88;;
72686;Laerm;61365;52.162;4.500;2023-04-23T01:27:03;43.22;38.01;52.71;;
72686;Laerm;61365;52.162;4.500;2023-04-23T01:29:29;43.23;37.38;52.37;;
72686;Laerm;61365;52.162;4.500;2023-04-23T01:31:56;43.16;37.77;51.32;;
72686;Laerm;61365;52.162;4.500;2023-04-23T01:34:22;43.25;37.95;51.86;;
72686;Laerm;61365;52.162;4.500;2023-04-23T01:36:49;43.38;37.62;51.82;;
72686;Laerm;61365;52.162;4.500;2023-04-23T01:39:17;43.36;37.27;50.59;;
72686;Laerm;61365;52.162;4.500;2023-04-23T01:41:43;43.30;37.80;48.81;;
72686;Laerm;61365;52.162;4.500;2023-04-23T01:44:09;43.32;38.30;52.11;;
72686;Laerm;61365;52.162;4.500;2023-04-23T01:46:36;43.15;37.44;51.73;;
72686;Laerm;61365;52.162;4.500;2023-04-23T01:49:02;43.09;37.36;48.16;;
72686;Laerm;61365;52.162;4.500;2023-04-23T01:51:29;43.07;38.26;51.60;;
72686;Laerm;61365;52.162;4.500;2023-04-23T01:53:55;42.85;36.58;51.43;;
72686;Laerm;61365;52.162;4.500;2023-04-23T01:56:26;42.85;37.48;50.35;;
72686;Laerm;61365;52.162;4.500;2023-04-23T01:58:53;42.79;37.89;50.36;;
72686;Laerm;61365;52.162;4.500;2023-04-23T02:01:19;42.86;37.86;51.16;;
72686;Laerm;61365;52.162;4.500;2023-04-23T02:03:45;42.84;37.59;49.38;;
72686;Laerm;61365;52.162;4.500;2023-04-23T02:06:14;42.96;36.47;50.36;;
72686;Laerm;61365;52.162;4.500;2023-04-23T02:08:40;42.93;38.42;51.65;;
72686;Laerm;61365;52.162;4.500;2023-04-23T02:11:07;42.86;37.89;51.09;;
72686;Laerm;61365;52.162;4.500;2023-04-23T02:13:33;42.94;37.58;51.55;;
72686;Laerm;61365;52.162;4.500;2023-04-23T02:15:59;42.96;37.76;51.64;;
72686;Laerm;61365;52.162;4.500;2023-04-23T02:18:26;42.86;35.49;46.74;;
72686;Laerm;61365;52.162;4.500;2023-04-23T02:20:53;42.87;37.90;51.57;;
72686;Laerm;61365;52.162;4.500;2023-04-23T02:23:19;42.90;37.96;47.11;;
72686;Laerm;61365;52.162;4.500;2023-04-23T02:25:45;42.85;37.91;51.39;;
72686;Laerm;61365;52.162;4.500;2023-04-23T02:28:11;42.73;37.81;50.58;;
72686;Laerm;61365;52.162;4.500;2023-04-23T02:30:38;42.64;37.30;50.63;;
72686;Laerm;61365;52.162;4.500;2023-04-23T02:33:10;42.64;37.72;51.74;;
72686;Laerm;61365;52.162;4.500;2023-04-23T02:35:37;42.62;38.02;52.18;;
72686;Laerm;61365;52.162;4.500;2023-04-23T02:38:03;42.65;37.84;46.36;;
72686;Laerm;61365;52.162;4.500;2023-04-23T02:40:29;42.62;38.01;46.46;;
72686;Laerm;61365;52.162;4.500;2023-04-23T02:42:56;42.67;36.89;50.51;;
72686;Laerm;61365;52.162;4.500;2023-04-23T02:45:22;42.73;37.83;51.29;;
72686;Laerm;61365;52.162;4.500;2023-04-23T02:47:48;42.74;37.96;50.11;;
72686;Laerm;61365;52.162;4.500;2023-04-23T02:50:14;42.75;38.02;51.36;;
72686;Laerm;61365;52.162;4.500;2023-04-23T02:52:41;42.77;37.69;51.21;;
72686;Laerm;61365;52.162;4.500;2023-04-23T02:55:07;42.73;37.47;51.51;;
72686;Laerm;61365;52.162;4.500;2023-04-23T02:57:34;42.74;37.43;51.68;;
72686;Laerm;61365;52.162;4.500;2023-04-23T03:00:01;42.71;38.38;51.31;;
72686;Laerm;61365;52.162;4.500;2023-04-23T03:02:31;42.74;38.51;46.57;;
72686;Laerm;61365;52.162;4.500;2023-04-23T03:04:57;42.70;38.07;50.74;;
72686;Laerm;61365;52.162;4.500;2023-04-23T03:07:23;42.77;38.15;51.36;;
72686;Laerm;61365;52.162;4.500;2023-04-23T03:09:49;42.79;38.11;51.56;;
72686;Laerm;61365;52.162;4.500;2023-04-23T03:12:15;42.72;37.70;51.20;;
72686;Laerm;61365;52.162;4.500;2023-04-23T03:14:43;42.75;38.28;51.28;;
72686;Laerm;61365;52.162;4.500;2023-04-23T03:17:09;42.73;37.77;50.30;;
72686;Laerm;61365;52.162;4.500;2023-04-23T03:19:35;42.67;37.87;46.88;;
72686;Laerm;61365;52.162;4.500;2023-04-23T03:22:02;42.73;38.10;51.03;;
72686;Laerm;61365;52.162;4.500;2023-04-23T03:24:32;42.76;38.15;51.26;;
72686;Laerm;61365;52.162;4.500;2023-04-23T03:26:58;42.77;37.86;51.49;;
72686;Laerm;61365;52.162;4.500;2023-04-23T03:29:25;42.69;37.55;51.12;;
72686;Laerm;61365;52.162;4.500;2023-04-23T03:31:51;42.71;37.77;50.82;;
72686;Laerm;61365;52.162;4.500;2023-04-23T03:34:17;42.72;37.65;50.23;;
72686;Laerm;61365;52.162;4.500;2023-04-23T03:36:43;42.72;37.71;51.60;;
72686;Laerm;61365;52.162;4.500;2023-04-23T03:39:11;42.68;37.01;49.95;;
72686;Laerm;61365;52.162;4.500;2023-04-23T03:41:37;42.72;37.22;50.49;;
72686;Laerm;61365;52.162;4.500;2023-04-23T03:44:03;42.72;38.25;51.47;;
72686;Laerm;61365;52.162;4.500;2023-04-23T03:46:29;42.78;38.16;51.51;;
72686;Laerm;61365;52.162;4.500;2023-04-23T03:48:55;43.01;36.64;51.24;;
72686;Laerm;61365;52.162;4.500;2023-04-23T03:51:21;42.99;38.01;51.26;;
72686;Laerm;61365;52.162;4.500;2023-04-23T03:53:48;42.89;37.04;51.18;;
72686;Laerm;61365;52.162;4.500;2023-04-23T03:56:14;42.91;37.90;51.31;;
72686;Laerm;61365;52.162;4.500;2023-04-23T03:58:40;43.03;38.31;51.24;;
72686;Laerm;61365;52.162;4.500;2023-04-23T04:01:06;42.96;38.13;49.36;;
72686;Laerm;61365;52.162;4.500;2023-04-23T04:03:32;42.96;37.85;50.71;;
72686;Laerm;61365;52.162;4.500;2023-04-23T04:05:59;42.88;38.15;51.83;;
72686;Laerm;61365;52.162;4.500;2023-04-23T04:08:25;43.00;37.38;51.38;;
72686;Laerm;61365;52.162;4.500;2023-04-23T04:10:51;42.91;38.54;51.70;;
72686;Laerm;61365;52.162;4.500;2023-04-23T04:13:18;42.91;38.40;51.44;;
72686;Laerm;61365;52.162;4.500;2023-04-23T04:15:44;42.90;37.74;50.72;;
72686;Laerm;61365;52.162;4.500;2023-04-23T04:18:10;42.90;36.80;51.12;;
72686;Laerm;61365;52.162;4.500;2023-04-23T04:20:36;43.03;37.38;51.20;;
72686;Laerm;61365;52.162;4.500;2023-04-23T04:23:03;42.89;38.29;48.76;;
72686;Laerm;61365;52.162;4.500;2023-04-23T04:25:29;42.82;37.72;51.34;;
72686;Laerm;61365;52.162;4.500;2023-04-23T04:27:55;42.80;37.63;51.14;;
72686;Laerm;61365;52.162;4.500;2023-04-23T04:30:23;42.80;38.27;50.96;;
72686;Laerm;61365;52.162;4.500;2023-04-23T04:32:49;42.87;38.20;51.69;;
72686;Laerm;61365;52.162;4.500;2023-04-23T04:35:15;42.80;37.71;51.70;;
72686;Laerm;61365;52.162;4.500;2023-04-23T04:37:41;42.75;37.25;48.80;;
72686;Laerm;61365;52.162;4.500;2023-04-23T04:40:09;42.82;35.87;51.23;;
72686;Laerm;61365;52.162;4.500;2023-04-23T04:42:36;42.85;38.29;50.65;;
72686;Laerm;61365;52.162;4.500;2023-04-23T04:45:04;42.84;37.91;50.99;;
72686;Laerm;61365;52.162;4.500;2023-04-23T04:47:31;42.83;38.41;46.88;;
72686;Laerm;61365;52.162;4.500;2023-04-23T04:49:58;42.89;37.89;51.88;;
72686;Laerm;61365;52.162;4.500;2023-04-23T04:52:25;42.85;37.74;51.54;;
72686;Laerm;61365;52.162;4.500;2023-04-23T04:54:51;42.81;37.92;51.66;;
72686;Laerm;61365;52.162;4.500;2023-04-23T04:57:17;42.79;36.62;49.98;;
72686;Laerm;61365;52.162;4.500;2023-04-23T04:59:44;42.87;37.73;51.41;;
72686;Laerm;61365;52.162;4.500;2023-04-23T05:02:11;42.86;37.20;51.02;;
72686;Laerm;61365;52.162;4.500;2023-04-23T05:04:37;42.84;37.42;51.57;;
72686;Laerm;61365;52.162;4.500;2023-04-23T05:07:03;42.81;38.14;51.35;;
72686;Laerm;61365;52.162;4.500;2023-04-23T05:09:30;42.93;36.18;49.53;;
72686;Laerm;61365;52.162;4.500;2023-04-23T05:11:56;42.86;37.92;51.42;;
72686;Laerm;61365;52.162;4.500;2023-04-23T05:14:22;43.01;37.52;51.26;;
72686;Laerm;61365;52.162;4.500;2023-04-23T05:16:51;42.90;37.85;50.77;;
72686;Laerm;61365;52.162;4.500;2023-04-23T05:19:17;42.98;38.42;51.56;;
72686;Laerm;61365;52.162;4.500;2023-04-23T05:21:43;43.08;37.30;52.53;;
72686;Laerm;61365;52.162;4.500;2023-04-23T05:24:09;42.98;37.38;50.73;;
72686;Laerm;61365;52.162;4.500;2023-04-23T05:26:36;43.03;37.41;51.29;;
72686;Laerm;61365;52.162;4.500;2023-04-23T05:29:02;43.10;36.99;51.51;;
72686;Laerm;61365;52.162;4.500;2023-04-23T05:31:28;43.08;38.35;50.18;;
72686;Laerm;61365;52.162;4.500;2023-04-23T05:33:55;43.11;37.82;51.33;;
72686;Laerm;61365;52.162;4.500;2023-04-23T05:36:21;43.17;37.82;51.46;;
72686;Laerm;61365;52.162;4.500;2023-04-23T05:38:47;43.13;38.12;51.02;;
72686;Laerm;61365;52.162;4.500;2023-04-23T05:41:14;43.23;38.13;51.56;;
72686;Laerm;61365;52.162;4.500;2023-04-23T05:43:40;43.30;37.99;50.26;;
72686;Laerm;61365;52.162;4.500;2023-04-23T05:46:06;43.39;38.15;51.17;;
72686;Laerm;61365;52.162;4.500;2023-04-23T05:48:33;43.45;37.39;51.75;;
72686;Laerm;61365;52.162;4.500;2023-04-23T05:50:59;43.64;38.23;52.19;;
72686;Laerm;61365;52.162;4.500;2023-04-23T05:53:27;43.64;36.73;52.34;;
72686;Laerm;61365;52.162;4.500;2023-04-23T05:55:53;43.85;38.18;52.38;;
72686;Laerm;61365;52.162;4.500;2023-04-23T05:58:19;43.84;38.20;51.88;;
72686;Laerm;61365;52.162;4.500;2023-04-23T06:00:45;43.93;37.47;51.78;;
72686;Laerm;61365;52.162;4.500;2023-04-23T06:03:11;44.17;38.09;52.24;;
72686;Laerm;61365;52.162;4.500;2023-04-23T06:05:37;44.37;37.32;52.39;;
72686;Laerm;61365;52.162;4.500;2023-04-23T06:08:04;44.43;36.04;52.86;;
72686;Laerm;61365;52.162;4.500;2023-04-23T06:10:30;44.42;38.04;52.87;;
72686;Laerm;61365;52.162;4.500;2023-04-23T06:12:56;44.41;37.58;51.58;;
72686;Laerm;61365;52.162;4.500;2023-04-23T06:15:22;44.65;38.49;52.35;;
72686;Laerm;61365;52.162;4.500;2023-04-23T06:17:51;44.77;38.18;52.57;;
72686;Laerm;61365;52.162;4.500;2023-04-23T06:20:19;44.78;37.47;50.71;;
72686;Laerm;61365;52.162;4.500;2023-04-23T06:22:45;44.91;38.43;51.80;;
72686;Laerm;61365;52.162;4.500;2023-04-23T06:25:11;45.00;36.30;52.68;;
72686;Laerm;61365;52.162;4.500;2023-04-23T06:27:37;45.07;38.55;54.18;;
72686;Laerm;61365;52.162;4.500;2023-04-23T06:30:04;45.08;38.25;53.81;;
72686;Laerm;61365;52.162;4.500;2023-04-23T06:32:30;45.07;38.83;52.28;;
72686;Laerm;61365;52.162;4.500;2023-04-23T06:34:56;45.13;37.89;53.09;;
72686;Laerm;61365;52.162;4.500;2023-04-23T06:37:22;45.17;37.39;51.75;;
72686;Laerm;61365;52.162;4.500;2023-04-23T06:39:48;45.32;39.42;52.34;;
72686;Laerm;61365;52.162;4.500;2023-04-23T06:42:15;44.86;38.14;53.43;;
72686;Laerm;61365;52.162;4.500;2023-04-23T06:44:41;44.56;38.45;51.93;;
72686;Laerm;61365;52.162;4.500;2023-04-23T06:47:07;44.60;38.24;53.88;;
72686;Laerm;61365;52.162;4.500;2023-04-23T06:49:35;44.49;38.56;51.93;;
72686;Laerm;61365;52.162;4.500;2023-04-23T06:52:01;44.66;38.53;53.82;;
72686;Laerm;61365;52.162;4.500;2023-04-23T06:54:28;44.77;37.66;51.59;;
72686;Laerm;61365;52.162;4.500;2023-04-23T06:56:54;44.95;37.70;54.70;;
72686;Laerm;61365;52.162;4.500;2023-04-23T06:59:21;45.08;38.42;53.28;;
72686;Laerm;61365;52.162;4.500;2023-04-23T07:01:47;45.11;37.19;52.03;;
72686;Laerm;61365;52.162;4.500;2023-04-23T07:04:14;45.18;38.63;51.34;;
72686;Laerm;61365;52.162;4.500;2023-04-23T07:06:40;46.05;39.27;52.45;;
72686;Laerm;61365;52.162;4.500;2023-04-23T07:09:06;46.40;38.71;52.46;;
72686;Laerm;61365;52.162;4.500;2023-04-23T07:11:32;46.56;38.68;52.39;;
72686;Laerm;61365;52.162;4.500;2023-04-23T07:14:01;46.46;39.37;54.16;;
72686;Laerm;61365;52.162;4.500;2023-04-23T07:16:28;46.49;39.03;53.96;;
72686;Laerm;61365;52.162;4.500;2023-04-23T07:18:59;46.63;39.19;53.32;;
72686;Laerm;61365;52.162;4.500;2023-04-23T07:21:27;46.69;38.29;52.27;;
72686;Laerm;61365;52.162;4.500;2023-04-23T07:23:56;46.72;39.37;51.54;;
72686;Laerm;61365;52.162;4.500;2023-04-23T07:26:24;46.75;39.53;54.20;;
72686;Laerm;61365;52.162;4.500;2023-04-23T07:28:52;46.67;39.51;52.01;;
72686;Laerm;61365;52.162;4.500;2023-04-23T07:31:18;46.77;39.49;54.44;;
72686;Laerm;61365;52.162;4.500;2023-04-23T07:33:45;46.78;39.09;52.74;;
72686;Laerm;61365;52.162;4.500;2023-04-23T07:36:11;46.86;38.78;53.50;;
72686;Laerm;61365;52.162;4.500;2023-04-23T07:38:37;46.81;39.83;51.68;;
72686;Laerm;61365;52.162;4.500;2023-04-23T07:41:03;46.83;39.25;53.79;;
72686;Laerm;61365;52.162;4.500;2023-04-23T07:43:30;46.83;39.62;52.49;;
72686;Laerm;61365;52.162;4.500;2023-04-23T07:45:56;47.01;39.46;53.07;;
72686;Laerm;61365;52.162;4.500;2023-04-23T07:48:22;47.14;39.52;53.56;;
72686;Laerm;61365;52.162;4.500;2023-04-23T07:50:48;47.22;39.52;53.54;;
72686;Laerm;61365;52.162;4.500;2023-04-23T07:53:14;47.20;38.67;51.86;;
72686;Laerm;61365;52.162;4.500;2023-04-23T07:55:40;47.17;40.35;52.22;;
72686;Laerm;61365;52.162;4.500;2023-04-23T07:58:06;47.17;37.99;53.30;;
72686;Laerm;61365;52.162;4.500;2023-04-23T08:00:32;47.39;39.45;52.30;;
72686;Laerm;61365;52.162;4.500;2023-04-23T08:02:58;47.38;39.08;51.63;;
72686;Laerm;61365;52.162;4.500;2023-04-23T08:05:25;47.28;39.25;53.84;;
72686;Laerm;61365;52.162;4.500;2023-04-23T08:07:51;47.42;37.61;52.93;;
72686;Laerm;61365;52.162;4.500;2023-04-23T08:10:17;47.48;37.69;53.07;;
72686;Laerm;61365;52.162;4.500;2023-04-23T08:12:44;47.38;39.44;52.45;;
72686;Laerm;61365;52.162;4.500;2023-04-23T08:15:10;47.45;39.93;54.96;;
72686;Laerm;61365;52.162;4.500;2023-04-23T08:17:37;46.66;39.26;52.54;;
72686;Laerm;61365;52.162;4.500;2023-04-23T08:20:04;46.22;39.48;53.43;;
72686;Laerm;61365;52.162;4.500;2023-04-23T08:22:33;46.97;39.94;53.28;;
72686;Laerm;61365;52.162;4.500;2023-04-23T08:24:59;47.41;39.29;63.73;;
72686;Laerm;61365;52.162;4.500;2023-04-23T08:27:25;47.34;39.79;52.47;;
72686;Laerm;61365;52.162;4.500;2023-04-23T08:29:51;47.42;39.37;55.68;;
72686;Laerm;61365;52.162;4.500;2023-04-23T08:32:17;47.43;38.43;52.68;;
72686;Laerm;61365;52.162;4.500;2023-04-23T08:34:44;47.42;40.49;53.14;;
72686;Laerm;61365;52.162;4.500;2023-04-23T08:37:10;47.63;39.68;53.43;;
72686;Laerm;61365;52.162;4.500;2023-04-23T08:39:36;47.64;40.35;53.62;;
72686;Laerm;61365;52.162;4.500;2023-04-23T08:42:23;47.63;40.27;55.54;;
72686;Laerm;61365;52.162;4.500;2023-04-23T08:44:52;47.60;38.87;52.09;;
72686;Laerm;61365;52.162;4.500;2023-04-23T08:47:23;47.42;39.93;55.93;;
72686;Laerm;61365;52.162;4.500;2023-04-23T08:49:53;47.46;39.43;52.15;;
72686;Laerm;61365;52.162;4.500;2023-04-23T08:52:22;47.65;39.12;53.52;;
72686;Laerm;61365;52.162;4.500;2023-04-23T08:54:51;47.78;38.68;55.95;;
72686;Laerm;61365;52.162;4.500;2023-04-23T08:57:18;47.74;38.09;52.63;;
72686;Laerm;61365;52.162;4.500;2023-04-23T08:59:45;47.87;40.47;52.10;;
72686;Laerm;61365;52.162;4.500;2023-04-23T09:02:12;47.91;40.08;53.15;;
72686;Laerm;61365;52.162;4.500;2023-04-23T09:04:40;47.85;40.28;52.98;;
72686;Laerm;61365;52.162;4.500;2023-04-23T09:07:07;47.81;38.12;61.58;;
72686;Laerm;61365;52.162;4.500;2023-04-23T09:09:37;47.53;39.67;53.84;;
72686;Laerm;61365;52.162;4.500;2023-04-23T09:12:07;47.58;40.49;55.64;;
72686;Laerm;61365;52.162;4.500;2023-04-23T09:14:34;47.50;39.99;52.82;;
72686;Laerm;61365;52.162;4.500;2023-04-23T09:17:01;47.61;40.11;51.57;;
72686;Laerm;61365;52.162;4.500;2023-04-23T09:19:27;47.58;39.19;52.61;;
72686;Laerm;61365;52.162;4.500;2023-04-23T09:21:54;47.56;40.65;55.12;;
72686;Laerm;61365;52.162;4.500;2023-04-23T09:24:23;47.49;38.90;53.92;;
72686;Laerm;61365;52.162;4.500;2023-04-23T09:26:51;47.66;39.48;54.48;;
72686;Laerm;61365;52.162;4.500;2023-04-23T09:29:19;47.75;38.96;53.17;;
72686;Laerm;61365;52.162;4.500;2023-04-23T09:31:48;47.81;39.46;52.26;;
72686;Laerm;61365;52.162;4.500;2023-04-23T09:34:17;47.74;40.54;52.98;;
72686;Laerm;61365;52.162;4.500;2023-04-23T09:36:45;47.78;41.11;52.15;;
72686;Laerm;61365;52.162;4.500;2023-04-23T09:39:13;47.71;38.92;52.21;;
72686;Laerm;61365;52.162;4.500;2023-04-23T09:41:40;47.74;40.39;52.30;;
72686;Laerm;61365;52.162;4.500;2023-04-23T09:44:06;47.88;40.17;55.26;;
72686;Laerm;61365;52.162;4.500;2023-04-23T09:46:41;47.42;39.52;53.68;;
72686;Laerm;61365;52.162;4.500;2023-04-23T09:49:09;46.66;39.27;51.69;;
72686;Laerm;61365;52.162;4.500;2023-04-23T09:51:36;46.84;40.15;55.42;;
72686;Laerm;61365;52.162;4.500;2023-04-23T09:54:07;46.80;39.52;52.42;;
72686;Laerm;61365;52.162;4.500;2023-04-23T09:56:35;47.07;39.97;54.39;;
72686;Laerm;61365;52.162;4.500;2023-04-23T09:59:01;47.97;40.43;52.62;;
72686;Laerm;61365;52.162;4.500;2023-04-23T10:01:28;47.97;40.90;51.92;;
72686;Laerm;61365;52.162;4.500;2023-04-23T10:03:55;47.99;40.31;52.25;;
72686;Laerm;61365;52.162;4.500;2023-04-23T10:06:28;48.03;39.63;52.30;;
72686;Laerm;61365;52.162;4.500;2023-04-23T10:08:56;48.00;40.54;52.35;;
72686;Laerm;61365;52.162;4.500;2023-04-23T10:11:23;47.98;39.56;52.53;;
72686;Laerm;61365;52.162;4.500;2023-04-23T10:13:52;47.78;39.81;52.00;;
72686;Laerm;61365;52.162;4.500;2023-04-23T10:16:20;47.88;39.72;64.87;;
72686;Laerm;61365;52.162;4.500;2023-04-23T10:18:48;47.95;39.86;54.24;;
72686;Laerm;61365;52.162;4.500;2023-04-23T10:21:16;48.08;39.38;52.75;;
72686;Laerm;61365;52.162;4.500;2023-04-23T10:23:46;47.93;40.27;53.24;;
72686;Laerm;61365;52.162;4.500;2023-04-23T10:26:14;47.97;40.40;52.93;;
72686;Laerm;61365;52.162;4.500;2023-04-23T10:28:46;47.96;40.35;52.07;;
72686;Laerm;61365;52.162;4.500;2023-04-23T10:31:14;48.01;38.90;52.79;;
72686;Laerm;61365;52.162;4.500;2023-04-23T10:33:42;48.02;39.20;52.29;;
72686;Laerm;61365;52.162;4.500;2023-04-23T10:36:08;48.00;40.19;52.01;;
72686;Laerm;61365;52.162;4.500;2023-04-23T10:38:35;48.06;39.32;52.98;;
72686;Laerm;61365;52.162;4.500;2023-04-23T10:41:03;48.12;39.32;51.86;;
72686;Laerm;61365;52.162;4.500;2023-04-23T10:43:29;48.02;39.88;52.78;;
72686;Laerm;61365;52.162;4.500;2023-04-23T10:45:56;47.88;39.63;52.87;;
72686;Laerm;61365;52.162;4.500;2023-04-23T10:48:22;48.14;39.74;52.52;;
72686;Laerm;61365;52.162;4.500;2023-04-23T10:50:56;48.09;40.58;52.51;;
72686;Laerm;61365;52.162;4.500;2023-04-23T10:53:23;48.14;40.21;53.80;;
72686;Laerm;61365;52.162;4.500;2023-04-23T10:56:03;48.22;40.31;55.56;;
72686;Laerm;61365;52.162;4.500;2023-04-23T10:58:47;48.27;40.71;52.94;;
72686;Laerm;61365;52.162;4.500;2023-04-23T11:01:16;48.27;38.06;52.78;;
72686;Laerm;61365;52.162;4.500;2023-04-23T11:03:43;48.33;40.00;52.45;;
72686;Laerm;61365;52.162;4.500;2023-04-23T11:06:13;48.31;40.14;52.84;;
72686;Laerm;61365;52.162;4.500;2023-04-23T11:08:52;48.20;39.52;54.98;;
72686;Laerm;61365;52.162;4.500;2023-04-23T11:11:26;48.01;39.18;53.63;;
72686;Laerm;61365;52.162;4.500;2023-04-23T11:14:10;48.30;40.43;53.89;;
72686;Laerm;61365;52.162;4.500;2023-04-23T11:16:39;48.33;39.56;52.24;;
72686;Laerm;61365;52.162;4.500;2023-04-23T11:19:09;48.44;40.46;52.77;;
72686;Laerm;61365;52.162;4.500;2023-04-23T11:21:56;48.39;40.47;54.94;;
72686;Laerm;61365;52.162;4.500;2023-04-23T11:24:30;48.29;39.32;52.27;;
72686;Laerm;61365;52.162;4.500;2023-04-23T11:26:57;48.26;39.87;52.20;;
72686;Laerm;61365;52.162;4.500;2023-04-23T11:29:24;48.52;41.42;55.69;;
72686;Laerm;61365;52.162;4.500;2023-04-23T11:31:53;48.85;40.38;52.85;;
72686;Laerm;61365;52.162;4.500;2023-04-23T11:34:19;48.66;41.30;52.66;;
72686;Laerm;61365;52.162;4.500;2023-04-23T11:36:50;48.60;40.58;52.91;;
72686;Laerm;61365;52.162;4.500;2023-04-23T11:39:16;48.51;41.02;52.96;;
72686;Laerm;61365;52.162;4.500;2023-04-23T11:41:44;48.62;39.99;55.97;;
72686;Laerm;61365;52.162;4.500;2023-04-23T11:44:15;48.79;42.03;52.54;;
72686;Laerm;61365;52.162;4.500;2023-04-23T11:46:41;48.83;41.85;52.70;;
72686;Laerm;61365;52.162;4.500;2023-04-23T11:49:08;48.96;40.38;52.83;;
72686;Laerm;61365;52.162;4.500;2023-04-23T11:51:42;48.79;40.53;52.43;;
72686;Laerm;61365;52.162;4.500;2023-04-23T11:54:09;49.01;41.67;52.83;;
72686;Laerm;61365;52.162;4.500;2023-04-23T11:56:36;49.07;41.14;52.71;;
72686;Laerm;61365;52.162;4.500;2023-04-23T11:59:04;48.80;41.09;55.47;;
72686;Laerm;61365;52.162;4.500;2023-04-23T12:01:45;48.68;40.99;52.44;;
72686;Laerm;61365;52.162;4.500;2023-04-23T12:04:42;48.60;40.46;54.55;;
72686;Laerm;61365;52.162;4.500;2023-04-23T12:07:08;48.64;41.13;52.95;;
72686;Laerm;61365;52.162;4.500;2023-04-23T12:09:34;48.73;42.01;52.54;;
72686;Laerm;61365;52.162;4.500;2023-04-23T12:12:01;48.76;39.98;52.47;;
72686;Laerm;61365;52.162;4.500;2023-04-23T12:14:29;48.94;41.18;53.94;;
72686;Laerm;61365;52.162;4.500;2023-04-23T12:16:56;49.04;40.28;52.97;;
72686;Laerm;61365;52.162;4.500;2023-04-23T12:19:27;48.93;41.92;52.53;;
72686;Laerm;61365;52.162;4.500;2023-04-23T12:21:58;48.89;41.51;53.08;;
72686;Laerm;61365;52.162;4.500;2023-04-23T12:24:27;48.77;41.27;52.42;;
72686;Laerm;61365;52.162;4.500;2023-04-23T12:26:56;48.95;41.26;52.81;;
72686;Laerm;61365;52.162;4.500;2023-04-23T12:29:23;48.96;41.41;52.91;;
72686;Laerm;61365;52.162;4.500;2023-04-23T12:31:51;48.57;41.07;56.43;;
72686;Laerm;61365;52.162;4.500;2023-04-23T12:34:18;48.63;41.35;52.64;;
72686;Laerm;61365;52.162;4.500;2023-04-23T12:36:53;48.56;40.25;52.58;;
72686;Laerm;61365;52.162;4.500;2023-04-23T12:41:56;48.36;40.07;53.09;;
72686;Laerm;61365;52.162;4.500;2023-04-23T12:44:24;48.34;41.24;53.00;;
72686;Laerm;61365;52.162;4.500;2023-04-23T12:46:58;48.41;40.17;53.67;;
72686;Laerm;61365;52.162;4.500;2023-04-23T12:49:25;48.44;40.84;52.85;;
72686;Laerm;61365;52.162;4.500;2023-04-23T12:51:55;48.49;40.32;52.73;;
72686;Laerm;61365;52.162;4.500;2023-04-23T12:54:35;48.41;40.85;52.36;;
72686;Laerm;61365;52.162;4.500;2023-04-23T12:57:06;48.43;41.58;52.59;;
72686;Laerm;61365;52.162;4.500;2023-04-23T12:59:32;48.49;40.68;52.97;;
72686;Laerm;61365;52.162;4.500;2023-04-23T13:01:59;48.61;41.43;53.24;;
72686;Laerm;61365;52.162;4.500;2023-04-23T13:04:32;48.49;40.84;53.04;;
72686;Laerm;61365;52.162;4.500;2023-04-23T13:06:59;48.11;39.08;52.20;;
72686;Laerm;61365;52.162;4.500;2023-04-23T13:09:27;47.68;39.43;52.24;;
72686;Laerm;61365;52.162;4.500;2023-04-23T13:11:53;47.71;40.57;56.87;;
72686;Laerm;61365;52.162;4.500;2023-04-23T13:14:19;47.60;39.44;55.16;;
72686;Laerm;61365;52.162;4.500;2023-04-23T13:16:46;47.34;39.77;54.80;;
72686;Laerm;61365;52.162;4.500;2023-04-23T13:19:13;47.31;39.22;51.61;;
72686;Laerm;61365;52.162;4.500;2023-04-23T13:21:41;47.31;38.61;52.53;;
72686;Laerm;61365;52.162;4.500;2023-04-23T13:24:07;47.23;39.73;52.59;;
72686;Laerm;61365;52.162;4.500;2023-04-23T13:26:33;47.47;40.05;55.13;;
72686;Laerm;61365;52.162;4.500;2023-04-23T13:29:00;47.54;39.94;52.80;;
72686;Laerm;61365;52.162;4.500;2023-04-23T13:31:27;47.51;40.33;51.78;;
72686;Laerm;61365;52.162;4.500;2023-04-23T13:33:54;47.66;40.21;51.90;;
72686;Laerm;61365;52.162;4.500;2023-04-23T13:36:20;47.86;40.20;52.56;;
72686;Laerm;61365;52.162;4.500;2023-04-23T13:38:47;47.80;40.65;52.07;;
72686;Laerm;61365;52.162;4.500;2023-04-23T13:41:13;47.78;40.68;55.60;;
72686;Laerm;61365;52.162;4.500;2023-04-23T13:43:39;47.58;40.36;52.93;;
72686;Laerm;61365;52.162;4.500;2023-04-23T13:46:06;47.60;39.24;53.78;;
72686;Laerm;61365;52.162;4.500;2023-04-23T13:48:32;47.43;39.46;52.65;;